Time;durP1;ratioP1;P1;durP2;ratioP2;P2;SDS_P1;SDS_P2;PMS_P1;PMS_P2;Temp;Humidity;BMP_temperature;BMP_pressure;BME280_temperature;BME280_humidity;BME280_pressure;Samples;Min_cycle;Max_cycle;Signal;HPM_P1;HPM_P2
2023/02/17 00:02:07;;;;;;;108.30;22.23;;;10.50;91.90;;;;;;5023546;28;20030;-58
2023/02/17 00:04:33;;;;;;;100.30;21.33;;;10.40;91.90;;;;;;5023823;28;20033;-58
2023/02/17 00:06:58;;;;;;;111.93;20.92;;;10.40;91.90;;;;;;5023602;28;20034;-58
2023/02/17 00:09:24;;;;;;;144.38;21.83;;;10.40;91.90;;;;;;5023462;28;20040;-58
2023/02/17 00:11:50;;;;;;;122.82;21.77;;;10.40;92.00;;;;;;5023770;28;20442;-58
2023/02/17 00:14:16;;;;;;;106.82;21.13;;;10.40;92.00;;;;;;5007322;28;20026;-58
2023/02/17 00:16:41;;;;;;;88.43;20.33;;;10.40;92.00;;;;;;5024845;28;20045;-58
2023/02/17 00:19:22;;;;;;;82.03;19.35;;;10.40;92.30;;;;;;5024720;28;20022;-58
2023/02/17 00:22:00;;;;;;;89.15;20.38;;;10.40;92.00;;;;;;5025002;28;20040;-58
2023/02/17 00:24:27;;;;;;;93.18;20.08;;;10.30;91.90;;;;;;5023577;28;20038;-58
2023/02/17 00:26:53;;;;;;;84.05;18.50;;;10.30;92.00;;;;;;5023588;28;20034;-58
2023/02/17 00:29:18;;;;;;;96.22;19.73;;;10.30;92.00;;;;;;5024798;28;20160;-58
2023/02/17 00:31:44;;;;;;;83.45;18.77;;;10.30;92.10;;;;;;5023508;28;20037;-58
2023/02/17 00:34:10;;;;;;;87.60;18.33;;;10.30;92.20;;;;;;5023349;28;20026;-58
2023/02/17 00:36:35;;;;;;;88.95;18.83;;;10.30;92.30;;;;;;5024639;28;20041;-59
2023/02/17 00:39:01;;;;;;;85.50;17.98;;;10.30;92.30;;;;;;5025501;28;20101;-58
2023/02/17 00:41:27;;;;;;;67.00;17.92;;;10.30;92.40;;;;;;5027641;28;20029;-58
2023/02/17 00:43:53;;;;;;;89.53;19.02;;;10.30;92.40;;;;;;5028926;28;20157;-58
2023/02/17 00:46:18;;;;;;;92.00;19.00;;;10.30;92.40;;;;;;5028782;28;20077;-58
2023/02/17 00:48:45;;;;;;;92.47;18.30;;;10.30;92.40;;;;;;5027013;28;20044;-58
2023/02/17 00:51:11;;;;;;;70.45;17.63;;;10.30;92.40;;;;;;5027124;28;20034;-58
2023/02/17 00:53:36;;;;;;;93.50;17.50;;;10.30;92.40;;;;;;5027186;28;20060;-58
2023/02/17 00:56:02;;;;;;;75.03;17.45;;;10.30;92.40;;;;;;5026839;28;20030;-58
2023/02/17 00:58:27;;;;;;;68.45;18.40;;;10.30;92.40;;;;;;5027101;28;20026;-58
2023/02/17 01:00:56;;;;;;;83.57;17.48;;;10.30;92.40;;;;;;5010662;28;20133;-58
2023/02/17 01:03:22;;;;;;;90.15;17.27;;;10.30;92.40;;;;;;5027233;28;20052;-58
2023/02/17 01:05:48;;;;;;;81.68;17.48;;;10.20;92.40;;;;;;5028215;28;20069;-58
2023/02/17 01:08:13;;;;;;;84.03;17.63;;;10.30;92.40;;;;;;5026776;28;20362;-58
2023/02/17 01:10:40;;;;;;;78.53;17.90;;;10.30;92.50;;;;;;5027291;28;20087;-58
2023/02/17 01:13:06;;;;;;;75.50;17.48;;;10.30;92.50;;;;;;5026895;28;20121;-58
2023/02/17 01:15:36;;;;;;;64.68;16.48;;;10.30;92.50;;;;;;5028085;28;20056;-58
2023/02/17 01:18:01;;;;;;;62.67;16.08;;;10.30;92.50;;;;;;5026911;28;20033;-58
2023/02/17 01:20:27;;;;;;;70.38;17.40;;;10.30;92.50;;;;;;5027114;28;20085;-58
2023/02/17 01:22:53;;;;;;;69.80;17.27;;;10.30;92.50;;;;;;5027700;28;20030;-58
2023/02/17 01:25:18;;;;;;;70.70;17.17;;;10.20;92.50;;;;;;5026573;28;20034;-58
2023/02/17 01:27:45;;;;;;;69.55;17.45;;;10.20;92.50;;;;;;5027843;28;20030;-58
2023/02/17 01:30:12;;;;;;;71.53;16.27;;;10.20;92.50;;;;;;5026377;28;20041;-58
2023/02/17 01:32:37;;;;;;;70.93;16.77;;;10.20;92.50;;;;;;5009864;28;20442;-58
2023/02/17 01:35:03;;;;;;;56.53;16.75;;;10.20;92.50;;;;;;5027692;28;20034;-58
2023/02/17 01:37:31;;;;;;;62.17;16.33;;;10.20;92.50;;;;;;5027640;28;20081;-58
2023/02/17 01:39:56;;;;;;;56.03;16.20;;;10.20;92.40;;;;;;5026340;28;20061;-58
2023/02/17 01:42:22;;;;;;;57.03;15.23;;;10.10;92.40;;;;;;5026184;28;20029;-58
2023/02/17 01:45:16;;;;;;;52.78;15.73;;;10.20;92.40;;;;;;5027643;28;20053;-58
2023/02/17 01:47:49;;;;;;;50.45;16.20;;;10.20;92.40;;;;;;5027312;28;20029;-58
2023/02/17 01:50:15;;;;;;;44.80;15.88;;;10.20;92.40;;;;;;5008512;28;20474;-58
2023/02/17 01:52:41;;;;;;;70.47;17.27;;;10.10;92.40;;;;;;5025952;28;20132;-58
2023/02/17 01:55:09;;;;;;;58.30;17.48;;;10.10;92.40;;;;;;5026085;28;20136;-58
2023/02/17 01:57:35;;;;;;;54.78;15.65;;;10.10;92.40;;;;;;5025852;28;20018;-58
2023/02/17 02:00:02;;;;;;;68.93;16.92;;;10.10;92.40;;;;;;5025894;28;20052;-58
2023/02/17 02:02:29;;;;;;;49.67;16.10;;;10.10;92.40;;;;;;5009342;28;20101;-58
2023/02/17 02:04:55;;;;;;;45.10;15.45;;;10.10;92.50;;;;;;5025998;28;20025;-58
2023/02/17 02:07:24;;;;;;;48.08;15.05;;;10.10;92.50;;;;;;5025553;28;20055;-58
2023/02/17 02:09:51;;;;;;;54.30;15.88;;;10.10;92.50;;;;;;5025709;28;20038;-58
2023/02/17 02:12:25;;;;;;;55.17;14.45;;;10.10;92.50;;;;;;5025612;28;20029;-58
2023/02/17 02:14:50;;;;;;;45.50;14.95;;;10.10;92.50;;;;;;5027086;28;20026;-58
2023/02/17 02:17:29;;;;;;;47.63;15.52;;;10.10;92.50;;;;;;5025191;28;20036;-58
2023/02/17 02:20:09;;;;;;;49.38;14.30;;;10.00;92.40;;;;;;5025632;28;20068;-58
2023/02/17 02:22:46;;;;;;;50.65;14.85;;;10.00;92.40;;;;;;5025331;28;20029;-58
2023/02/17 02:25:42;;;;;;;50.10;13.50;;;10.00;92.40;;;;;;5026760;28;20030;-58
2023/02/17 02:28:35;;;;;;;39.08;13.48;;;10.00;92.30;;;;;;5025324;28;20033;-58
2023/02/17 02:31:23;;;;;;;45.47;13.35;;;10.00;92.20;;;;;;5025136;28;20034;-58
2023/02/17 02:33:59;;;;;;;42.58;12.02;;;10.00;92.20;;;;;;5025396;28;20026;-58
2023/02/17 02:36:32;;;;;;;42.67;14.40;;;10.00;92.00;;;;;;5025436;28;20093;-58
2023/02/17 02:39:01;;;;;;;50.42;13.95;;;10.00;92.00;;;;;;5025180;28;20423;-58
2023/02/17 02:41:30;;;;;;;58.28;14.20;;;10.00;92.00;;;;;;5025088;28;20045;-58
2023/02/17 02:43:55;;;;;;;43.47;13.13;;;10.00;92.10;;;;;;5016843;28;20049;-58
2023/02/17 02:46:21;;;;;;;31.30;12.45;;;10.00;92.00;;;;;;5045112;28;20022;-58
2023/02/17 02:48:47;;;;;;;44.38;13.48;;;9.90;92.30;;;;;;5044703;28;20025;-58
2023/02/17 02:51:12;;;;;;;39.58;13.57;;;10.00;92.10;;;;;;5044716;28;20064;-58
2023/02/17 02:53:54;;;;;;;45.90;13.07;;;9.90;92.00;;;;;;5045764;28;20029;-58
2023/02/17 02:57:14;;;;;;;40.05;12.93;;;10.00;92.30;;;;;;5046124;28;20338;-58
2023/02/17 02:59:51;;;;;;;41.38;13.23;;;9.90;92.00;;;;;;5023682;28;20138;-58
2023/02/17 03:02:21;;;;;;;39.45;12.00;;;9.90;92.00;;;;;;5045325;28;20055;-58
2023/02/17 03:04:52;;;;;;;57.05;12.75;;;9.90;91.90;;;;;;5044647;28;20044;-58
2023/02/17 03:07:47;;;;;;;40.53;11.80;;;10.00;92.10;;;;;;5044538;28;20025;-58
2023/02/17 03:10:12;;;;;;;36.63;12.30;;;9.90;92.10;;;;;;5043976;28;20042;-58
2023/02/17 03:12:38;;;;;;;37.45;11.23;;;10.00;92.10;;;;;;5044257;28;20055;-58
2023/02/17 03:15:11;;;;;;;36.28;11.32;;;10.00;92.20;;;;;;5027695;28;20036;-59
2023/02/17 03:17:37;;;;;;;28.05;11.23;;;10.00;92.20;;;;;;5044232;28;20029;-58
2023/02/17 03:20:02;;;;;;;31.25;10.82;;;10.00;92.20;;;;;;5045194;28;20478;-58
2023/02/17 03:22:34;;;;;;;36.67;12.07;;;10.00;92.10;;;;;;5044167;28;20040;-58
2023/02/17 03:25:00;;;;;;;29.60;10.70;;;10.00;92.00;;;;;;5044189;28;20108;-58
2023/02/17 03:27:26;;;;;;;29.48;11.00;;;10.00;91.90;;;;;;5044062;28;20026;-58
2023/02/17 03:29:51;;;;;;;29.88;10.45;;;10.00;91.80;;;;;;5044996;28;20052;-58
2023/02/17 03:32:17;;;;;;;24.80;10.20;;;10.10;91.70;;;;;;5044067;28;20029;-58
2023/02/17 03:34:42;;;;;;;32.55;11.32;;;10.10;91.60;;;;;;5044853;28;20026;-58
2023/02/17 03:37:08;;;;;;;36.47;10.98;;;10.10;91.50;;;;;;5043473;28;20036;-58
2023/02/17 03:39:34;;;;;;;34.80;11.05;;;10.10;91.50;;;;;;5044260;28;20044;-58
2023/02/17 03:42:00;;;;;;;30.92;10.27;;;10.10;91.40;;;;;;5043645;28;20453;-58
2023/02/17 03:44:26;;;;;;;35.25;11.63;;;10.10;91.40;;;;;;5043335;28;20041;-58
2023/02/17 03:46:51;;;;;;;35.63;11.57;;;10.10;91.50;;;;;;5045316;28;20036;-58
2023/02/17 03:49:17;;;;;;;31.65;11.50;;;10.10;91.50;;;;;;5044831;28;20037;-58
2023/02/17 03:51:42;;;;;;;27.63;11.32;;;10.10;91.60;;;;;;5043306;28;20029;-58
2023/02/17 03:54:08;;;;;;;35.15;11.73;;;10.10;91.60;;;;;;5043645;28;20135;-58
2023/02/17 03:56:33;;;;;;;36.25;11.48;;;10.10;91.60;;;;;;5043534;28;20120;-58
2023/02/17 03:58:59;;;;;;;31.88;11.65;;;10.10;91.60;;;;;;5043705;28;20068;-58
2023/02/17 04:01:24;;;;;;;28.90;10.80;;;10.10;91.60;;;;;;5044538;28;20343;-58
2023/02/17 04:03:50;;;;;;;30.08;11.00;;;10.10;91.60;;;;;;5026856;28;20029;-58
2023/02/17 04:06:16;;;;;;;31.73;10.27;;;10.00;91.50;;;;;;5043649;28;20044;-58
2023/02/17 04:08:41;;;;;;;30.88;10.35;;;10.10;91.40;;;;;;5043458;28;20052;-58
2023/02/17 04:11:07;;;;;;;28.50;9.85;;;10.00;91.40;;;;;;5029583;28;20034;-58
2023/02/17 04:13:33;;;;;;;25.17;10.00;;;10.00;91.40;;;;;;5022992;28;20041;-58
2023/02/17 04:16:00;;;;;;;24.25;10.23;;;10.00;91.30;;;;;;5023525;28;20118;-58
2023/02/17 04:18:26;;;;;;;24.92;9.38;;;10.00;91.10;;;;;;5023890;28;20026;-58
2023/02/17 04:20:52;;;;;;;24.60;9.43;;;10.00;91.00;;;;;;5023517;28;20120;-58
2023/02/17 04:23:18;;;;;;;27.60;9.13;;;10.10;91.00;;;;;;5023529;28;20113;-58
2023/02/17 04:25:43;;;;;;;24.58;10.18;;;10.00;91.00;;;;;;5023609;28;20042;-58
2023/02/17 04:28:09;;;;;;;28.23;9.75;;;10.00;91.00;;;;;;5007276;28;20049;-58
2023/02/17 04:30:35;;;;;;;26.02;9.75;;;10.00;91.00;;;;;;5023479;28;20049;-58
2023/02/17 04:33:00;;;;;;;41.42;9.10;;;10.00;91.00;;;;;;5023497;28;20022;-58
2023/02/17 04:35:26;;;;;;;23.52;9.00;;;10.10;91.00;;;;;;5023452;28;20026;-58
2023/02/17 04:37:51;;;;;;;29.33;9.80;;;10.10;90.90;;;;;;5034208;28;20030;-58
2023/02/17 04:40:17;;;;;;;28.48;9.23;;;10.10;90.80;;;;;;5026585;28;20033;-58
2023/02/17 04:42:43;;;;;;;29.45;9.35;;;10.00;90.70;;;;;;5043207;28;20030;-59
2023/02/17 04:45:08;;;;;;;39.67;10.50;;;10.00;90.70;;;;;;5043148;28;20061;-58
2023/02/17 04:47:34;;;;;;;27.13;8.75;;;10.00;90.60;;;;;;5026640;28;20107;-58
2023/02/17 04:50:00;;;;;;;41.63;10.65;;;10.00;90.60;;;;;;5023202;28;20030;-58
2023/02/17 04:52:25;;;;;;;46.83;10.77;;;10.00;90.50;;;;;;5023258;28;20026;-58
2023/02/17 04:54:51;;;;;;;39.00;9.77;;;10.00;90.50;;;;;;5023653;28;20467;-58
2023/02/17 04:57:16;;;;;;;39.63;10.27;;;10.00;90.40;;;;;;5023181;28;20121;-58
2023/02/17 04:59:42;;;;;;;34.13;9.75;;;10.00;90.30;;;;;;5023378;28;20033;-58
2023/02/17 05:02:07;;;;;;;41.60;9.80;;;10.00;90.10;;;;;;5023354;28;20030;-59
2023/02/17 05:04:33;;;;;;;30.50;8.77;;;10.00;90.00;;;;;;5023218;28;20157;-58
2023/02/17 05:06:59;;;;;;;34.00;9.07;;;10.00;90.00;;;;;;5023021;28;20057;-59
2023/02/17 05:09:24;;;;;;;28.17;8.93;;;10.00;90.10;;;;;;5022905;28;20026;-58
2023/02/17 05:11:50;;;;;;;37.60;8.88;;;10.10;90.20;;;;;;5024538;28;20049;-58
2023/02/17 05:14:15;;;;;;;29.98;9.85;;;10.00;90.20;;;;;;5023498;28;20030;-58
2023/02/17 05:16:41;;;;;;;29.85;9.50;;;10.00;90.10;;;;;;5023033;28;20026;-58
2023/02/17 05:19:06;;;;;;;33.03;9.15;;;10.10;90.20;;;;;;5022896;28;20037;-58
2023/02/17 05:21:32;;;;;;;38.47;9.00;;;10.00;90.60;;;;;;5023173;28;20128;-58
2023/02/17 05:23:57;;;;;;;38.45;9.20;;;10.10;90.40;;;;;;5023316;28;20462;-58
2023/02/17 05:26:23;;;;;;;31.00;9.05;;;10.10;90.40;;;;;;5026559;28;20029;-58
2023/02/17 05:28:49;;;;;;;23.77;8.93;;;10.10;90.30;;;;;;5026509;28;20474;-58
2023/02/17 05:31:15;;;;;;;38.17;9.00;;;10.10;90.30;;;;;;5028397;28;20046;-58
2023/02/17 05:33:40;;;;;;;33.55;8.77;;;10.10;90.30;;;;;;5029660;28;20037;-58
2023/02/17 05:36:07;;;;;;;24.98;8.30;;;10.00;90.30;;;;;;5046204;28;20464;-58
2023/02/17 05:38:32;;;;;;;27.48;9.10;;;10.00;90.30;;;;;;5045956;28;20450;-58
2023/02/17 05:40:58;;;;;;;25.10;8.32;;;10.00;90.30;;;;;;5038501;28;20045;-58
2023/02/17 05:43:24;;;;;;;32.50;8.93;;;10.00;90.50;;;;;;5026075;28;20134;-58
2023/02/17 05:45:49;;;;;;;33.10;8.60;;;10.00;90.60;;;;;;5009741;28;20030;-58
2023/02/17 05:48:15;;;;;;;27.33;8.48;;;10.00;90.60;;;;;;5025689;28;20053;-58
2023/02/17 05:50:40;;;;;;;26.25;8.55;;;10.00;90.60;;;;;;5026255;28;20038;-58
2023/02/17 05:53:06;;;;;;;24.17;8.32;;;10.00;90.70;;;;;;5009547;28;20041;-58
2023/02/17 05:55:31;;;;;;;25.33;8.43;;;10.00;90.70;;;;;;5025582;28;20057;-58
2023/02/17 05:57:57;;;;;;;27.35;8.20;;;10.00;90.70;;;;;;5025722;28;20026;-58
2023/02/17 06:00:23;;;;;;;22.95;7.60;;;10.00;90.70;;;;;;5043395;28;20064;-58
2023/02/17 06:02:48;;;;;;;26.92;7.20;;;10.00;90.70;;;;;;5045508;28;20029;-58
2023/02/17 06:05:14;;;;;;;27.20;7.80;;;10.00;90.80;;;;;;5046912;28;20112;-58
2023/02/17 06:07:40;;;;;;;24.02;7.68;;;10.00;90.90;;;;;;5044457;28;20037;-58
2023/02/17 06:10:06;;;;;;;29.20;7.50;;;10.00;90.80;;;;;;5045511;28;20100;-58
2023/02/17 06:12:31;;;;;;;27.52;7.03;;;10.00;90.80;;;;;;5028739;28;20037;-58
2023/02/17 06:14:57;;;;;;;28.88;7.97;;;10.00;90.90;;;;;;5046639;28;20030;-58
2023/02/17 06:17:22;;;;;;;38.90;7.78;;;10.00;91.00;;;;;;5045770;28;20030;-58
2023/02/17 06:19:48;;;;;;;20.02;7.13;;;10.00;91.00;;;;;;5046621;28;20032;-58
2023/02/17 06:22:13;;;;;;;20.63;7.05;;;10.00;91.00;;;;;;5045174;28;20026;-58
2023/02/17 06:24:39;;;;;;;24.10;7.47;;;10.00;91.00;;;;;;5046759;28;20030;-58
2023/02/17 06:27:05;;;;;;;22.63;7.18;;;10.00;91.00;;;;;;5014831;28;20026;-58
2023/02/17 06:29:30;;;;;;;21.40;8.02;;;10.00;91.00;;;;;;5026602;28;20033;-58
2023/02/17 06:31:56;;;;;;;27.95;8.02;;;10.00;91.00;;;;;;5008585;28;20096;-58
2023/02/17 06:34:21;;;;;;;19.52;7.72;;;10.00;91.10;;;;;;5051573;28;20036;-58
2023/02/17 06:36:47;;;;;;;28.65;7.38;;;10.00;91.10;;;;;;5063263;28;20036;-58
2023/02/17 06:39:12;;;;;;;27.48;7.55;;;10.00;91.10;;;;;;5066334;28;20055;-58
2023/02/17 06:41:38;;;;;;;22.95;7.35;;;10.00;91.20;;;;;;5064716;28;20063;-58
2023/02/17 06:44:03;;;;;;;22.08;7.18;;;10.00;91.20;;;;;;5046957;28;20024;-58
2023/02/17 06:46:29;;;;;;;24.52;7.85;;;10.00;91.20;;;;;;5064483;28;20045;-58
2023/02/17 06:48:54;;;;;;;25.00;7.50;;;9.90;91.20;;;;;;5064388;28;20097;-58
2023/02/17 06:51:20;;;;;;;18.48;7.15;;;10.00;91.20;;;;;;5066371;28;20048;-58
2023/02/17 06:53:45;;;;;;;18.70;6.50;;;10.00;91.20;;;;;;5065082;28;20329;-58
2023/02/17 06:56:11;;;;;;;21.40;6.78;;;10.00;91.30;;;;;;5065344;28;20032;-58
2023/02/17 06:58:37;;;;;;;18.48;6.53;;;10.00;91.30;;;;;;5064869;28;20029;-57
2023/02/17 07:01:02;;;;;;;20.35;6.22;;;10.00;91.20;;;;;;5064988;28;20048;-58
2023/02/17 07:03:28;;;;;;;11.73;6.72;;;10.00;91.20;;;;;;5064386;28;20029;-56
2023/02/17 07:05:57;;;;;;;21.95;6.78;;;10.00;91.20;;;;;;5064551;28;20037;-56
2023/02/17 07:08:23;;;;;;;21.55;6.40;;;10.00;91.20;;;;;;5064514;28;20039;-56
2023/02/17 07:10:49;;;;;;;20.35;7.38;;;10.00;91.20;;;;;;5064622;28;20467;-56
2023/02/17 07:13:14;;;;;;;20.15;6.30;;;10.00;91.50;;;;;;5065572;28;20104;-56
2023/02/17 07:15:40;;;;;;;12.65;6.13;;;10.00;91.20;;;;;;5064115;28;20025;-56
2023/02/17 07:18:05;;;;;;;13.30;5.55;;;10.00;91.10;;;;;;5064028;28;20047;-56
2023/02/17 07:20:31;;;;;;;21.83;5.90;;;10.00;91.10;;;;;;5027103;28;20048;-56
2023/02/17 07:22:57;;;;;;;13.10;5.20;;;10.00;91.20;;;;;;5043724;28;20026;-56
2023/02/17 07:25:23;;;;;;;16.35;6.13;;;10.00;91.20;;;;;;5050643;28;20063;-56
2023/02/17 07:27:49;;;;;;;18.30;5.80;;;10.00;91.20;;;;;;5057383;28;20025;-56
2023/02/17 07:30:14;;;;;;;18.88;5.90;;;10.00;91.20;;;;;;5029299;28;20026;-56
2023/02/17 07:32:40;;;;;;;14.27;6.00;;;10.00;91.20;;;;;;5061178;28;20029;-56
2023/02/17 07:35:06;;;;;;;17.02;6.25;;;10.00;91.30;;;;;;5047294;28;20029;-56
2023/02/17 07:37:32;;;;;;;22.95;6.18;;;10.00;91.30;;;;;;5045883;28;20113;-56
2023/02/17 07:39:58;;;;;;;13.35;5.82;;;10.00;91.30;;;;;;5058968;28;20035;-56
2023/02/17 07:42:26;;;;;;;11.52;5.53;;;10.00;91.40;;;;;;5064496;28;20056;-56
2023/02/17 07:44:51;;;;;;;10.98;5.15;;;10.00;91.30;;;;;;5063728;28;20029;-56
2023/02/17 07:47:17;;;;;;;15.75;5.25;;;10.00;91.40;;;;;;5063265;28;20032;-56
2023/02/17 07:49:42;;;;;;;17.73;5.30;;;10.00;91.30;;;;;;5027229;28;20102;-56
2023/02/17 07:52:08;;;;;;;12.50;5.38;;;10.00;91.30;;;;;;5025471;28;20042;-56
2023/02/17 07:54:33;;;;;;;17.48;5.50;;;10.10;91.30;;;;;;5025244;28;20085;-56
2023/02/17 07:56:59;;;;;;;15.75;5.70;;;10.00;91.30;;;;;;5028948;28;20021;-55
2023/02/17 07:59:25;;;;;;;17.92;5.70;;;10.10;91.30;;;;;;5060248;28;20543;-56
2023/02/17 08:01:50;;;;;;;20.42;5.78;;;10.10;91.30;;;;;;5043650;28;20032;-56
2023/02/17 08:04:16;;;;;;;11.95;5.53;;;10.10;91.30;;;;;;5045014;28;20033;-56
2023/02/17 08:06:41;;;;;;;19.77;5.82;;;10.10;91.30;;;;;;5052189;28;20061;-56
2023/02/17 08:14:37;;;;;;;24.60;6.07;;;10.10;91.30;;;;;;5055033;28;19971;-56
2023/02/17 08:17:03;;;;;;;19.52;5.18;;;10.10;91.20;;;;;;5049284;28;20022;-56
2023/02/17 08:19:29;;;;;;;15.50;5.72;;;10.20;91.20;;;;;;5046177;28;20044;-56
2023/02/17 08:21:54;;;;;;;15.20;6.00;;;10.10;91.20;;;;;;5048255;28;20021;-56
2023/02/17 08:24:20;;;;;;;15.38;5.82;;;10.20;91.20;;;;;;5051947;28;20366;-56
2023/02/17 08:26:46;;;;;;;14.77;6.05;;;10.20;91.20;;;;;;5045423;28;20048;-56
2023/02/17 08:29:11;;;;;;;20.67;6.13;;;10.20;91.40;;;;;;5047776;28;20021;-56
2023/02/17 08:31:37;;;;;;;16.60;5.18;;;10.20;91.10;;;;;;5037789;28;20041;-56
2023/02/17 08:34:05;;;;;;;22.25;5.47;;;10.20;91.10;;;;;;5054813;28;20025;-56
2023/02/17 08:36:31;;;;;;;32.63;7.25;;;10.20;91.10;;;;;;5058069;28;20051;-56
2023/02/17 08:38:57;;;;;;;19.20;6.00;;;10.20;91.00;;;;;;5045207;28;20039;-56
2023/02/17 08:41:28;;;;;;;21.98;6.28;;;10.20;91.00;;;;;;5038124;28;20037;-56
2023/02/17 08:43:54;;;;;;;28.13;6.13;;;10.30;91.00;;;;;;5055450;28;20044;-56
2023/02/17 08:46:20;;;;;;;37.58;7.28;;;10.30;91.00;;;;;;5049305;28;20414;-56
2023/02/17 08:48:45;;;;;;;29.13;6.22;;;10.30;91.00;;;;;;5058822;28;20128;-56
2023/02/17 08:51:13;;;;;;;27.30;6.68;;;10.30;91.00;;;;;;5045803;28;20051;-56
2023/02/17 08:53:38;;;;;;;20.65;6.28;;;10.30;90.90;;;;;;5055003;28;20045;-56
2023/02/17 08:56:04;;;;;;;37.13;7.82;;;10.40;90.90;;;;;;5053245;28;20454;-56
2023/02/17 08:58:30;;;;;;;37.80;6.85;;;10.40;90.90;;;;;;5049607;28;20025;-56
2023/02/17 09:00:56;;;;;;;21.75;6.28;;;10.40;90.90;;;;;;5045606;28;20043;-56
2023/02/17 09:03:21;;;;;;;24.88;6.60;;;10.40;90.90;;;;;;5032190;28;20047;-56
2023/02/17 09:05:47;;;;;;;26.08;6.43;;;10.50;90.90;;;;;;5060306;28;20044;-56
2023/02/17 09:08:12;;;;;;;28.02;6.63;;;10.50;90.90;;;;;;5059475;28;20033;-56
2023/02/17 09:10:38;;;;;;;25.65;6.47;;;10.50;90.90;;;;;;5059086;28;20093;-56
2023/02/17 09:13:04;;;;;;;31.42;7.20;;;10.60;90.90;;;;;;5051266;28;20022;-56
2023/02/17 09:15:29;;;;;;;23.90;6.88;;;10.60;90.80;;;;;;5065910;28;20077;-56
2023/02/17 09:17:55;;;;;;;32.08;6.63;;;10.70;90.80;;;;;;5057958;28;20040;-56
2023/02/17 09:20:20;;;;;;;25.25;6.30;;;10.70;90.80;;;;;;5078638;28;20056;-56
2023/02/17 09:22:46;;;;;;;25.90;7.20;;;10.70;90.70;;;;;;5047104;28;20040;-56
2023/02/17 09:25:12;;;;;;;41.47;7.65;;;10.70;90.70;;;;;;5048182;28;20038;-56
2023/02/17 09:27:37;;;;;;;36.00;7.30;;;10.70;90.70;;;;;;5062183;28;20021;-56
2023/02/17 09:30:03;;;;;;;35.53;7.20;;;10.80;90.80;;;;;;5049539;28;20029;-56
2023/02/17 09:32:28;;;;;;;29.52;7.10;;;10.80;90.70;;;;;;5070277;28;20021;-56
2023/02/17 09:34:54;;;;;;;37.83;6.80;;;10.80;90.70;;;;;;5054003;28;20022;-55
2023/02/17 09:37:20;;;;;;;40.75;7.00;;;10.80;90.60;;;;;;5060652;28;20342;-56
2023/02/17 09:39:46;;;;;;;39.45;6.63;;;10.90;90.70;;;;;;5048910;28;20498;-56
2023/02/17 09:42:19;;;;;;;47.38;8.93;;;10.90;90.60;;;;;;5060902;28;20384;-56
2023/02/17 09:44:47;;;;;;;43.20;8.35;;;10.90;90.60;;;;;;5039415;28;20029;-56
2023/02/17 09:47:17;;;;;;;38.22;7.53;;;11.00;90.80;;;;;;5051051;28;20036;-56
2023/02/17 09:49:47;;;;;;;35.38;7.80;;;11.00;90.70;;;;;;5045108;28;20056;-56
2023/02/17 09:52:47;;;;;;;41.85;9.40;;;11.10;90.60;;;;;;5028769;28;20025;-56
2023/02/17 09:55:40;;;;;;;35.65;7.35;;;11.10;90.60;;;;;;5029470;28;20064;-56
2023/02/17 09:58:15;;;;;;;26.10;6.57;;;11.10;90.50;;;;;;5041560;28;20033;-56
2023/02/17 10:00:56;;;;;;;31.48;6.53;;;11.20;90.30;;;;;;5046464;28;20101;-56
2023/02/17 10:03:51;;;;;;;52.35;9.27;;;11.20;90.50;;;;;;5040435;28;20031;-56
2023/02/17 10:06:20;;;;;;;39.35;6.90;;;11.20;90.40;;;;;;5043655;28;20040;-56
2023/02/17 10:09:21;;;;;;;60.97;9.20;;;11.30;90.50;;;;;;5060736;28;20120;-56
2023/02/17 10:12:12;;;;;;;62.15;9.82;;;11.30;90.40;;;;;;5045484;28;20030;-56
2023/02/17 10:14:48;;;;;;;84.25;11.23;;;11.30;90.40;;;;;;5044807;28;20072;-56
2023/02/17 10:17:26;;;;;;;56.00;9.10;;;11.30;90.40;;;;;;5028540;28;20029;-56
2023/02/17 10:20:05;;;;;;;58.22;9.80;;;11.40;90.30;;;;;;5013140;28;20025;-56
2023/02/17 10:22:31;;;;;;;566.72;55.78;;;11.40;90.30;;;;;;5043489;28;20045;-56
2023/02/17 10:24:56;;;;;;;169.75;21.60;;;11.40;90.20;;;;;;5028546;28;20041;-56
2023/02/17 10:27:31;;;;;;;134.32;15.85;;;11.50;90.30;;;;;;5028045;28;20037;-56
2023/02/17 10:30:13;;;;;;;80.90;11.73;;;11.60;90.30;;;;;;5046800;28;20374;-56
2023/02/17 10:33:01;;;;;;;82.90;9.93;;;11.60;90.30;;;;;;5046225;28;20272;-56
2023/02/17 10:35:39;;;;;;;81.55;11.75;;;11.70;90.30;;;;;;5050154;28;20043;-56
2023/02/17 10:38:11;;;;;;;113.32;13.00;;;11.70;90.30;;;;;;5059348;28;20075;-56
2023/02/17 10:40:36;;;;;;;108.35;14.45;;;11.70;90.40;;;;;;5057728;28;20032;-55
2023/02/17 10:43:02;;;;;;;107.85;15.75;;;11.80;90.40;;;;;;5054129;28;20033;-56
2023/02/17 10:45:31;;;;;;;96.65;13.05;;;11.80;90.50;;;;;;5057950;28;20089;-56
2023/02/17 10:48:05;;;;;;;126.07;16.73;;;11.90;90.70;;;;;;5048694;28;20033;-56
2023/02/17 10:50:31;;;;;;;100.10;14.48;;;11.90;90.50;;;;;;5041431;28;20029;-56
2023/02/17 10:52:56;;;;;;;110.72;14.85;;;12.00;90.40;;;;;;5036385;28;20025;-56
2023/02/17 10:55:32;;;;;;;90.50;14.90;;;12.00;90.20;;;;;;5051178;28;20091;-56
2023/02/17 10:58:05;;;;;;;112.63;14.93;;;12.00;90.30;;;;;;5060267;28;20044;-56
2023/02/17 11:00:31;;;;;;;108.10;15.05;;;12.00;90.20;;;;;;5016978;28;20025;-56
2023/02/17 11:02:57;;;;;;;124.30;17.02;;;12.10;90.10;;;;;;5054386;28;20036;-56
2023/02/17 11:05:32;;;;;;;95.07;12.10;;;12.10;90.10;;;;;;5039935;28;20044;-56
2023/02/17 11:08:05;;;;;;;;;;;12.10;90.10;;;;;;5047750;28;20030;-56
2023/02/17 11:10:39;;;;;;;124.80;15.23;;;12.20;90.30;;;;;;5057956;28;20091;-56
2023/02/17 11:13:27;;;;;;;138.88;17.52;;;12.20;90.30;;;;;;5055353;28;20028;-56
2023/02/17 11:15:52;;;;;;;95.05;13.68;;;12.20;90.20;;;;;;5047097;28;20052;-56
2023/02/17 11:18:20;;;;;;;74.53;9.73;;;12.20;90.30;;;;;;5059639;28;20382;-56
2023/02/17 11:20:45;;;;;;;82.82;10.82;;;12.20;90.10;;;;;;5034661;28;20063;-56
2023/02/17 11:23:14;;;;;;;83.75;13.07;;;12.30;90.10;;;;;;5053664;28;20052;-56
2023/02/17 11:25:41;;;;;;;99.22;13.32;;;12.30;90.10;;;;;;5059661;28;20055;-56
2023/02/17 11:28:13;;;;;;;102.93;12.88;;;12.40;90.20;;;;;;5030236;28;20342;-56
2023/02/17 11:30:40;;;;;;;91.82;12.18;;;12.40;90.20;;;;;;5056472;28;20087;-56
2023/02/17 11:33:18;;;;;;;140.25;16.58;;;12.50;90.20;;;;;;5054899;28;20044;-56
2023/02/17 11:35:45;;;;;;;125.30;14.70;;;12.50;90.20;;;;;;5047391;28;20033;-56
2023/02/17 11:38:14;;;;;;;70.30;12.15;;;12.60;90.20;;;;;;5059340;28;20057;-56
2023/02/17 11:40:40;;;;;;;80.35;11.20;;;12.60;90.10;;;;;;5051354;28;20043;-56
2023/02/17 11:43:06;;;;;;;121.10;16.23;;;12.70;90.00;;;;;;5052535;28;20112;-56
2023/02/17 11:45:50;;;;;;;98.50;15.13;;;12.70;89.80;;;;;;5043554;28;20026;-56
2023/02/17 11:48:35;;;;;;;92.65;12.70;;;12.70;89.60;;;;;;5044624;28;20043;-56
2023/02/17 11:51:15;;;;;;;98.85;12.18;;;12.70;89.40;;;;;;5027697;28;20120;-56
2023/02/17 11:54:03;;;;;;;92.55;11.82;;;12.80;89.10;;;;;;5042727;28;20032;-56
2023/02/17 11:56:40;;;;;;;115.68;14.27;;;12.80;89.10;;;;;;5038863;28;20052;-56
2023/02/17 11:59:31;;;;;;;91.43;14.80;;;12.90;89.40;;;;;;5043329;28;20124;-56
2023/02/17 12:02:16;;;;;;;91.22;13.52;;;12.90;89.50;;;;;;5042625;28;20049;-55
2023/02/17 12:05:24;;;;;;;98.82;13.10;;;13.00;89.70;;;;;;5043176;28;20121;-56
2023/02/17 12:08:33;;;;;;;73.68;11.60;;;13.00;89.80;;;;;;5022421;28;20021;-56
2023/02/17 12:11:19;;;;;;;77.88;12.30;;;13.00;89.70;;;;;;5015104;28;20046;-56
2023/02/17 12:13:51;;;;;;;87.57;12.10;;;13.00;89.70;;;;;;5002702;28;20125;-56
2023/02/17 12:16:44;;;;;;;86.40;12.40;;;13.10;89.40;;;;;;5017418;28;20038;-56
2023/02/17 12:19:28;;;;;;;103.93;12.63;;;13.10;89.20;;;;;;5024447;28;20362;-56
2023/02/17 12:22:02;;;;;;;131.48;15.15;;;13.10;89.10;;;;;;5024717;28;20026;-56
2023/02/17 12:24:56;;;;;;;103.65;14.05;;;13.20;89.30;;;;;;5024966;28;20086;-56
2023/02/17 12:27:30;;;;;;;96.97;13.43;;;13.20;89.50;;;;;;5023708;28;20030;-56
2023/02/17 12:30:14;;;;;;;101.13;15.60;;;13.20;89.60;;;;;;5036699;28;20512;-56
2023/02/17 12:32:56;;;;;;;128.65;17.27;;;13.30;89.80;;;;;;5052312;28;20053;-56
2023/02/17 12:35:36;;;;;;;74.53;11.63;;;13.30;89.80;;;;;;5051748;28;20072;-56
2023/02/17 12:38:08;;;;;;;166.88;18.33;;;13.40;89.70;;;;;;5059064;28;20078;-56
2023/02/17 12:40:36;;;;;;;76.70;10.80;;;13.40;89.80;;;;;;5034583;28;20064;-56
2023/02/17 12:43:39;;;;;;;76.57;10.13;;;13.40;89.70;;;;;;5064073;28;20026;-56
2023/02/17 12:46:09;;;;;;;67.80;9.60;;;13.40;88.90;;;;;;5059249;28;20442;-56
2023/02/17 12:48:37;;;;;;;74.15;11.80;;;13.40;88.40;;;;;;5049995;28;20041;-56